createdAt,value
2016-09-06T00:00:20.584Z,0
2016-09-06T00:01:20.628Z,0
2016-09-06T00:02:20.635Z,0
2016-09-06T00:03:20.409Z,0
2016-09-06T00:04:20.719Z,0
2016-09-06T00:05:21.018Z,0
2016-09-06T00:06:20.712Z,0
2016-09-06T00:07:20.422Z,0
2016-09-06T00:08:21.066Z,0
2016-09-06T00:09:21.107Z,0
2016-09-06T00:10:20.497Z,0
2016-09-06T00:11:20.836Z,0
2016-09-06T00:12:20.892Z,0
2016-09-06T00:13:21.179Z,0
2016-09-06T00:14:20.899Z,0
2016-09-06T00:15:20.904Z,0
2016-09-06T00:16:21.242Z,0
2016-09-06T00:17:20.946Z,0
2016-09-06T00:18:20.960Z,0
2016-09-06T00:19:20.991Z,0
2016-09-06T00:20:21.339Z,0
2016-09-06T00:21:21.325Z,0
2016-09-06T00:22:21.059Z,0
2016-09-06T00:23:21.375Z,0
2016-09-06T00:24:21.454Z,0
2016-09-06T00:25:20.797Z,0
2016-09-06T00:26:21.456Z,0
2016-09-06T00:27:21.481Z,0
2016-09-06T00:28:21.156Z,0
2016-09-06T00:29:20.926Z,0
2016-09-06T00:30:21.200Z,0
2016-09-06T00:31:20.650Z,0
2016-09-06T00:32:21.394Z,0
2016-09-06T00:33:21.278Z,0
2016-09-06T00:34:21.609Z,0
2016-09-06T00:35:21.324Z,0
2016-09-06T00:36:21.707Z,0
2016-09-06T00:37:21.360Z,0
2016-09-06T00:38:21.362Z,0
2016-09-06T00:39:21.398Z,0
2016-09-06T00:40:21.736Z,0
2016-09-06T00:41:21.758Z,0
2016-09-06T00:42:21.466Z,0
2016-09-06T00:43:21.494Z,0
2016-09-06T00:44:21.565Z,0
2016-09-06T00:45:21.509Z,0
2016-09-06T00:46:21.847Z,0
2016-09-06T00:47:21.556Z,0
2016-09-06T00:48:21.575Z,0
2016-09-06T00:49:21.617Z,0
2016-09-06T00:50:21.610Z,0
2016-09-06T00:51:21.977Z,0
2016-09-06T00:52:22.083Z,0
2016-09-06T00:53:21.689Z,0
2016-09-06T00:54:22.021Z,0
2016-09-06T00:55:22.043Z,0
2016-09-06T00:56:22.045Z,0
2016-09-06T00:57:21.544Z,0
2016-09-06T00:58:21.460Z,0
2016-09-06T00:59:21.895Z,0
2016-09-06T01:00:22.135Z,0
2016-09-06T01:01:21.840Z,0
2016-09-06T01:02:21.848Z,0
2016-09-06T01:03:22.277Z,0
2016-09-06T01:04:22.329Z,0
2016-09-06T01:05:21.931Z,0
2016-09-06T01:06:21.614Z,0
2016-09-06T01:07:21.974Z,0
2016-09-06T01:08:22.300Z,0
2016-09-06T01:09:21.803Z,0
2016-09-06T01:10:22.041Z,0
2016-09-06T01:11:22.036Z,0
2016-09-06T01:12:22.166Z,0
2016-09-06T01:13:22.386Z,0
2016-09-06T01:14:22.195Z,0
2016-09-06T01:15:22.433Z,0
2016-09-06T01:16:22.459Z,0
2016-09-06T01:17:22.164Z,0
2016-09-06T01:18:22.176Z,0
2016-09-06T01:19:22.186Z,0
2016-09-06T01:20:22.559Z,0
2016-09-06T01:21:22.254Z,0
2016-09-06T01:22:22.594Z,0
2016-09-06T01:23:22.276Z,0
2016-09-06T01:24:22.627Z,0
2016-09-06T01:25:22.666Z,0
2016-09-06T01:26:22.429Z,0
2016-09-06T01:27:22.408Z,0
2016-09-06T01:28:22.690Z,0
2016-09-06T01:29:22.724Z,0
2016-09-06T01:30:22.113Z,0
2016-09-06T01:31:22.807Z,0
2016-09-06T01:32:22.768Z,0
2016-09-06T01:33:22.168Z,0
2016-09-06T01:34:22.510Z,0
2016-09-06T01:35:22.832Z,0
2016-09-06T01:36:22.854Z,0
2016-09-06T01:37:22.564Z,0
2016-09-06T01:38:22.587Z,0
2016-09-06T01:39:22.976Z,0
2016-09-06T01:40:22.949Z,0
2016-09-06T01:41:22.905Z,0
2016-09-06T01:42:22.650Z,0
2016-09-06T01:43:23.011Z,0
2016-09-06T01:44:22.417Z,0
2016-09-06T01:45:22.730Z,0
2016-09-06T01:46:22.417Z,0
2016-09-06T01:47:23.075Z,0
2016-09-06T01:48:22.799Z,0
2016-09-06T01:49:23.140Z,0
2016-09-06T01:50:22.844Z,0
2016-09-06T01:51:23.274Z,0
2016-09-06T01:52:22.864Z,0
2016-09-06T01:53:22.890Z,0
2016-09-06T01:54:22.892Z,0
2016-09-06T01:55:22.915Z,0
2016-09-06T01:56:23.245Z,0
2016-09-06T01:57:22.648Z,0
2016-09-06T01:58:22.674Z,0
2016-09-06T01:59:23.062Z,0
2016-09-06T02:00:23.034Z,0
2016-09-06T02:01:23.043Z,0
2016-09-06T02:02:22.737Z,0
2016-09-06T02:03:23.404Z,0
2016-09-06T02:04:23.527Z,0
2016-09-06T02:05:23.128Z,0
2016-09-06T02:06:23.519Z,0
2016-09-06T02:07:23.179Z,0
2016-09-06T02:08:23.508Z,0
2016-09-06T02:09:22.905Z,0
2016-09-06T02:10:23.255Z,0
2016-09-06T02:11:23.227Z,0
2016-09-06T02:12:23.588Z,0
2016-09-06T02:13:23.306Z,0
2016-09-06T02:14:23.306Z,0
2016-09-06T02:15:23.312Z,0
2016-09-06T02:16:23.646Z,0
2016-09-06T02:17:23.681Z,0
2016-09-06T02:18:23.373Z,0
2016-09-06T02:19:23.717Z,0
2016-09-06T02:20:23.736Z,0
2016-09-06T02:21:23.140Z,0
2016-09-06T02:22:23.185Z,0
2016-09-06T02:23:23.785Z,0
2016-09-06T02:24:23.590Z,0
2016-09-06T02:25:23.814Z,0
2016-09-06T02:26:23.838Z,0
2016-09-06T02:27:23.599Z,0
2016-09-06T02:28:23.624Z,0
2016-09-06T02:29:23.600Z,0
2016-09-06T02:30:23.680Z,0
2016-09-06T02:31:23.680Z,0
2016-09-06T02:32:23.956Z,0
2016-09-06T02:33:23.666Z,0
2016-09-06T02:34:23.717Z,0
2016-09-06T02:35:24.021Z,0
2016-09-06T02:36:24.055Z,0
2016-09-06T02:37:23.850Z,0
2016-09-06T02:38:24.089Z,0
2016-09-06T02:39:23.853Z,0
2016-09-06T02:40:24.216Z,0
2016-09-06T02:41:23.543Z,0
2016-09-06T02:42:23.547Z,0
2016-09-06T02:43:23.885Z,0
2016-09-06T02:44:24.227Z,0
2016-09-06T02:45:23.717Z,0
2016-09-06T02:46:24.249Z,0
2016-09-06T02:47:23.981Z,0
2016-09-06T02:48:24.278Z,0
2016-09-06T02:49:24.302Z,0
2016-09-06T02:50:24.108Z,0
2016-09-06T02:51:24.047Z,0
2016-09-06T02:52:24.410Z,0
2016-09-06T02:53:24.089Z,0
2016-09-06T02:54:24.090Z,0
2016-09-06T02:55:24.420Z,0
2016-09-06T02:56:24.189Z,0
2016-09-06T02:57:24.465Z,0
2016-09-06T02:58:23.643Z,0
2016-09-06T02:59:24.525Z,0
2016-09-06T03:00:24.856Z,0
2016-09-06T03:01:24.236Z,0
2016-09-06T03:02:24.338Z,0
2016-09-06T03:03:24.282Z,0
2016-09-06T03:04:24.598Z,0
2016-09-06T03:05:24.613Z,0
2016-09-06T03:06:24.333Z,0
2016-09-06T03:07:24.047Z,0
2016-09-06T03:08:24.690Z,0
2016-09-06T03:09:24.691Z,0
2016-09-06T03:10:24.724Z,0
2016-09-06T03:11:24.481Z,0
2016-09-06T03:12:24.435Z,0
2016-09-06T03:13:24.784Z,0
2016-09-06T03:14:24.175Z,0
2016-09-06T03:15:24.808Z,0
2016-09-06T03:16:24.839Z,0
2016-09-06T03:17:24.867Z,0
2016-09-06T03:18:24.881Z,0
2016-09-06T03:19:24.994Z,0
2016-09-06T03:20:24.599Z,0
2016-09-06T03:21:24.946Z,0
2016-09-06T03:22:24.639Z,0
2016-09-06T03:23:24.345Z,0
2016-09-06T03:24:24.678Z,0
2016-09-06T03:25:24.707Z,0
2016-09-06T03:26:25.025Z,0
2016-09-06T03:27:25.059Z,0
2016-09-06T03:28:24.752Z,0
2016-09-06T03:29:25.104Z,0
2016-09-06T03:30:25.140Z,0
2016-09-06T03:31:24.841Z,0
2016-09-06T03:32:24.535Z,0
2016-09-06T03:33:24.855Z,0
2016-09-06T03:34:25.185Z,0
2016-09-06T03:35:24.918Z,0
2016-09-06T03:36:24.933Z,0
2016-09-06T03:37:24.926Z,0
2016-09-06T03:38:24.959Z,0
2016-09-06T03:39:25.059Z,0
2016-09-06T03:40:25.293Z,0
2016-09-06T03:41:25.424Z,0
2016-09-06T03:42:25.344Z,0
2016-09-06T03:43:25.480Z,0
2016-09-06T03:44:25.516Z,0
2016-09-06T03:45:24.779Z,0
2016-09-06T03:46:25.129Z,0
2016-09-06T03:47:25.459Z,0
2016-09-06T03:48:25.516Z,0
2016-09-06T03:49:25.506Z,0
2016-09-06T03:50:25.529Z,0
2016-09-06T03:51:25.531Z,0
2016-09-06T03:52:24.915Z,0
2016-09-06T03:53:25.245Z,0
2016-09-06T03:54:25.647Z,0
2016-09-06T03:55:25.497Z,0
2016-09-06T03:56:25.741Z,0
2016-09-06T03:57:25.335Z,0
2016-09-06T03:58:25.389Z,0
2016-09-06T03:59:25.373Z,0
2016-09-06T04:00:25.847Z,0
2016-09-06T04:01:25.770Z,0
2016-09-06T04:02:25.756Z,0
2016-09-06T04:03:25.755Z,0
2016-09-06T04:04:25.470Z,0
2016-09-06T04:05:25.627Z,4
2016-09-06T04:06:25.837Z,0
2016-09-06T04:07:26.009Z,0
2016-09-06T04:08:25.559Z,4
2016-09-06T04:09:25.645Z,0
2016-09-06T04:10:25.638Z,4
2016-09-06T04:11:26.251Z,4
2016-09-06T04:12:26.102Z,8
2016-09-06T04:13:25.986Z,8
2016-09-06T04:14:26.181Z,8
2016-09-06T04:15:26.170Z,8
2016-09-06T04:16:26.190Z,12
2016-09-06T04:17:25.819Z,12
2016-09-06T04:18:26.269Z,16
2016-09-06T04:19:25.907Z,16
2016-09-06T04:20:25.498Z,20
2016-09-06T04:21:25.792Z,20
2016-09-06T04:22:26.367Z,24
2016-09-06T04:23:26.207Z,28
2016-09-06T04:24:26.358Z,32
2016-09-06T04:25:26.236Z,36
2016-09-06T04:26:26.046Z,44
2016-09-06T04:27:26.247Z,52
2016-09-06T04:28:26.032Z,56
2016-09-06T04:29:25.959Z,68
2016-09-06T04:30:26.360Z,76
2016-09-06T04:31:26.075Z,84
2016-09-06T04:32:26.350Z,96
2016-09-06T04:33:26.479Z,108
2016-09-06T04:34:26.466Z,124
2016-09-06T04:35:25.576Z,136
2016-09-06T04:36:26.307Z,152
2016-09-06T04:37:26.437Z,176
2016-09-06T04:38:25.994Z,196
2016-09-06T04:39:26.477Z,216
2016-09-06T04:40:26.480Z,240
2016-09-06T04:41:26.509Z,264
2016-09-06T04:42:26.305Z,292
2016-09-06T04:43:26.548Z,320
2016-09-06T04:44:26.561Z,348
2016-09-06T04:45:26.285Z,380
2016-09-06T04:46:26.626Z,412
2016-09-06T04:47:26.706Z,444
2016-09-06T04:48:26.625Z,480
2016-09-06T04:49:26.668Z,516
2016-09-06T04:50:26.107Z,556
2016-09-06T04:51:26.696Z,596
2016-09-06T04:52:26.411Z,644
2016-09-06T04:53:26.447Z,688
2016-09-06T04:54:26.751Z,736
2016-09-06T04:55:26.470Z,784
2016-09-06T04:56:27.080Z,832
2016-09-06T04:57:26.819Z,880
2016-09-06T04:58:26.510Z,936
2016-09-06T04:59:26.973Z,996
2016-09-06T05:00:27.058Z,1060
2016-09-06T05:01:26.271Z,1112
2016-09-06T05:02:26.923Z,1168
2016-09-06T05:03:26.919Z,1228
2016-09-06T05:04:26.608Z,1288
2016-09-06T05:05:26.961Z,1352
2016-09-06T05:06:26.624Z,1424
2016-09-06T05:07:26.695Z,1492
2016-09-06T05:08:27.027Z,1560
2016-09-06T05:09:26.715Z,1624
2016-09-06T05:10:27.071Z,1684
2016-09-06T05:11:27.114Z,1740
2016-09-06T05:12:27.131Z,1788
2016-09-06T05:13:27.131Z,1844
2016-09-06T05:14:27.231Z,1908
2016-09-06T05:15:26.860Z,1996
2016-09-06T05:16:26.903Z,2116
2016-09-06T05:17:27.200Z,2228
2016-09-06T05:18:26.921Z,2312
2016-09-06T05:19:26.927Z,2348
2016-09-06T05:20:26.950Z,2360
2016-09-06T05:21:27.279Z,2476
2016-09-06T05:22:27.312Z,2600
2016-09-06T05:23:27.335Z,2712
2016-09-06T05:24:27.036Z,2768
2016-09-06T05:25:27.364Z,2900
2016-09-06T05:26:27.081Z,3036
2016-09-06T05:27:26.447Z,3156
2016-09-06T05:28:27.095Z,3360
2016-09-06T05:29:27.139Z,3424
2016-09-06T05:30:26.766Z,3476
2016-09-06T05:31:27.482Z,3576
2016-09-06T05:32:27.482Z,3660
2016-09-06T05:33:27.209Z,3696
2016-09-06T05:34:26.926Z,3900
2016-09-06T05:35:26.925Z,3848
2016-09-06T05:36:27.282Z,3984
2016-09-06T05:37:27.635Z,4088
2016-09-06T05:38:27.762Z,4132
2016-09-06T05:39:27.327Z,4228
2016-09-06T05:40:27.346Z,4252
2016-09-06T05:41:27.698Z,4308
2016-09-06T05:42:27.674Z,4380
2016-09-06T05:43:27.420Z,4444
2016-09-06T05:44:27.761Z,4480
2016-09-06T05:45:27.605Z,4500
2016-09-06T05:46:27.207Z,4620
2016-09-06T05:47:27.166Z,4728
2016-09-06T05:48:27.843Z,4652
2016-09-06T05:49:27.532Z,4652
2016-09-06T05:50:27.541Z,4892
2016-09-06T05:51:27.865Z,5056
2016-09-06T05:52:27.954Z,5148
2016-09-06T05:53:27.621Z,5180
2016-09-06T05:54:27.625Z,5168
2016-09-06T05:55:27.983Z,5324
2016-09-06T05:56:27.976Z,5520
2016-09-06T05:57:27.689Z,5472
2016-09-06T05:58:28.026Z,5580
2016-09-06T05:59:28.050Z,5772
2016-09-06T06:00:28.156Z,5776
2016-09-06T06:01:28.079Z,5896
2016-09-06T06:02:27.810Z,6032
2016-09-06T06:03:28.182Z,6068
2016-09-06T06:04:28.164Z,6288
2016-09-06T06:05:28.048Z,6424
2016-09-06T06:06:27.860Z,6336
2016-09-06T06:07:28.199Z,6764
2016-09-06T06:08:28.260Z,7004
2016-09-06T06:09:28.257Z,6988
2016-09-06T06:10:28.123Z,7124
2016-09-06T06:11:28.286Z,7468
2016-09-06T06:12:28.331Z,7256
2016-09-06T06:13:28.026Z,7468
2016-09-06T06:14:28.427Z,7516
2016-09-06T06:15:28.427Z,7524
2016-09-06T06:16:28.521Z,7840
2016-09-06T06:17:28.487Z,7756
2016-09-06T06:18:28.138Z,7904
2016-09-06T06:19:28.141Z,8096
2016-09-06T06:20:28.484Z,8296
2016-09-06T06:21:28.513Z,8352
2016-09-06T06:22:28.254Z,8244
2016-09-06T06:23:28.568Z,8680
2016-09-06T06:24:28.567Z,8592
2016-09-06T06:25:28.280Z,8784
2016-09-06T06:26:28.402Z,8724
2016-09-06T06:27:28.344Z,8740
2016-09-06T06:28:28.749Z,8916
2016-09-06T06:29:28.764Z,8988
2016-09-06T06:30:28.395Z,8812
2016-09-06T06:31:28.727Z,9288
2016-09-06T06:32:28.760Z,9068
2016-09-06T06:33:28.157Z,8992
2016-09-06T06:34:28.477Z,9252
2016-09-06T06:35:28.816Z,9192
2016-09-06T06:36:28.833Z,9068
2016-09-06T06:37:28.999Z,9404
2016-09-06T06:38:29.088Z,9696
2016-09-06T06:39:29.016Z,9292
2016-09-06T06:40:28.958Z,9616
2016-09-06T06:41:28.992Z,10000
2016-09-06T06:42:29.020Z,10296
2016-09-06T06:43:28.379Z,10308
2016-09-06T06:44:29.018Z,10452
2016-09-06T06:45:28.744Z,10332
2016-09-06T06:46:28.837Z,10352
2016-09-06T06:47:29.102Z,10772
2016-09-06T06:48:29.138Z,10652
2016-09-06T06:49:29.215Z,10972
2016-09-06T06:50:28.851Z,11452
2016-09-06T06:51:29.246Z,11036
2016-09-06T06:52:29.249Z,10748
2016-09-06T06:53:28.911Z,10752
2016-09-06T06:54:29.263Z,12564
2016-09-06T06:55:29.294Z,12932
2016-09-06T06:56:29.309Z,11568
2016-09-06T06:57:29.022Z,12024
2016-09-06T06:58:29.034Z,13364
2016-09-06T06:59:28.958Z,14368
2016-09-06T07:00:29.102Z,12988
2016-09-06T07:01:29.605Z,14548
2016-09-06T07:02:29.290Z,13792
2016-09-06T07:03:29.296Z,11840
2016-09-06T07:04:29.598Z,16352
2016-09-06T07:05:30.057Z,14292
2016-09-06T07:06:29.643Z,11888
2016-09-06T07:07:29.623Z,18112
2016-09-06T07:08:29.637Z,17152
2016-09-06T07:09:29.676Z,15472
2016-09-06T07:10:29.747Z,20224
2016-09-06T07:11:29.669Z,25504
2016-09-06T07:12:29.698Z,25536
2016-09-06T07:13:29.719Z,24096
2016-09-06T07:14:29.430Z,41920
2016-09-06T07:15:29.453Z,43488
2016-09-06T07:16:29.775Z,35392
2016-09-06T07:17:29.813Z,41216
2016-09-06T07:18:29.850Z,40224
2016-09-06T07:19:29.669Z,41824
2016-09-06T07:20:29.896Z,38752
2016-09-06T07:21:29.615Z,39872
2016-09-06T07:22:30.098Z,42208
2016-09-06T07:23:29.731Z,42144
2016-09-06T07:24:29.688Z,42144
2016-09-06T07:25:29.736Z,41728
2016-09-06T07:26:30.066Z,41152
2016-09-06T07:27:30.096Z,43552
2016-09-06T07:28:30.117Z,42976
2016-09-06T07:29:30.134Z,40960
2016-09-06T07:30:30.323Z,41536
2016-09-06T07:31:30.206Z,41248
2016-09-06T07:32:29.619Z,40736
2016-09-06T07:33:30.361Z,41152
2016-09-06T07:34:30.342Z,42848
2016-09-06T07:35:29.688Z,43808
2016-09-06T07:36:30.579Z,43488
2016-09-06T07:37:29.767Z,42784
2016-09-06T07:38:30.401Z,43168
2016-09-06T07:39:30.440Z,44832
2016-09-06T07:40:30.453Z,44960
2016-09-06T07:41:30.240Z,44480
2016-09-06T07:42:29.989Z,41984
2016-09-06T07:43:30.341Z,24640
2016-09-06T07:44:30.605Z,7336
2016-09-06T07:45:30.644Z,7144
2016-09-06T07:46:30.686Z,5904
2016-09-06T07:47:30.364Z,5860
2016-09-06T07:48:30.694Z,5700
2016-09-06T07:49:30.741Z,5592
2016-09-06T07:50:30.776Z,5408
2016-09-06T07:51:30.785Z,5380
2016-09-06T07:52:30.258Z,5336
2016-09-06T07:53:30.870Z,5328
2016-09-06T07:54:30.875Z,5364
2016-09-06T07:55:30.895Z,5396
2016-09-06T07:56:30.984Z,5416
2016-09-06T07:57:30.955Z,5412
2016-09-06T07:58:30.987Z,5420
2016-09-06T07:59:31.032Z,5392
2016-09-06T08:00:31.026Z,5388
2016-09-06T08:01:31.061Z,5368
2016-09-06T08:02:31.096Z,5408
2016-09-06T08:03:30.893Z,5428
2016-09-06T08:04:30.850Z,5476
2016-09-06T08:05:31.227Z,5488
2016-09-06T08:06:30.878Z,5532
2016-09-06T08:07:30.895Z,5568
2016-09-06T08:08:31.277Z,5588
2016-09-06T08:09:31.286Z,5612
2016-09-06T08:10:31.320Z,5648
2016-09-06T08:11:31.308Z,5672
2016-09-06T08:12:31.357Z,5612
2016-09-06T08:13:31.390Z,5660
2016-09-06T08:14:31.086Z,5608
2016-09-06T08:15:31.415Z,5552
2016-09-06T08:16:31.443Z,5648
2016-09-06T08:17:31.168Z,5552
2016-09-06T08:18:31.495Z,5664
2016-09-06T08:19:31.528Z,5516
2016-09-06T08:20:31.539Z,5544
2016-09-06T08:21:31.586Z,5452
2016-09-06T08:22:31.619Z,5432
2016-09-06T08:23:31.489Z,5424
2016-09-06T08:24:31.812Z,5420
2016-09-06T08:25:31.700Z,5428
2016-09-06T08:26:31.690Z,5420
2016-09-06T08:27:31.814Z,5360
2016-09-06T08:28:31.746Z,5388
2016-09-06T08:29:31.797Z,5424
2016-09-06T08:30:31.489Z,5424
2016-09-06T08:31:31.856Z,5428
2016-09-06T08:32:31.834Z,5476
2016-09-06T08:33:31.548Z,5444
2016-09-06T08:34:31.924Z,5432
2016-09-06T08:35:31.951Z,5456
2016-09-06T08:36:31.650Z,5468
2016-09-06T08:37:32.083Z,5436
2016-09-06T08:38:31.696Z,5452
2016-09-06T08:39:31.722Z,5484
2016-09-06T08:40:31.415Z,5448
2016-09-06T08:41:32.067Z,5464
2016-09-06T08:42:31.784Z,5496
2016-09-06T08:43:31.816Z,5440
2016-09-06T08:44:32.148Z,5480
2016-09-06T08:45:31.559Z,5428
2016-09-06T08:46:31.944Z,5460
2016-09-06T08:47:31.917Z,5432
2016-09-06T08:48:31.943Z,5452
2016-09-06T08:49:31.954Z,5424
2016-09-06T08:50:31.964Z,5388
2016-09-06T08:51:32.009Z,5432
2016-09-06T08:52:32.040Z,5400
2016-09-06T08:53:32.205Z,5364
2016-09-06T08:54:32.103Z,5400
2016-09-06T08:55:32.105Z,5392
2016-09-06T08:56:32.212Z,5300
2016-09-06T08:57:32.486Z,5328
2016-09-06T08:58:32.303Z,5288
2016-09-06T08:59:32.293Z,5336
2016-09-06T09:00:33.041Z,5328
2016-09-06T09:01:32.778Z,5348
2016-09-06T09:02:32.746Z,5324
2016-09-06T09:03:32.442Z,5300
2016-09-06T09:04:32.803Z,5260
2016-09-06T09:05:32.762Z,5236
2016-09-06T09:06:32.812Z,5196
2016-09-06T09:07:32.789Z,5172
2016-09-06T09:08:32.333Z,5128
2016-09-06T09:09:33.076Z,5072
2016-09-06T09:10:32.810Z,5032
2016-09-06T09:11:33.039Z,5060
2016-09-06T09:12:32.954Z,5072
2016-09-06T09:13:33.048Z,5064
2016-09-06T09:14:32.923Z,5052
2016-09-06T09:15:33.186Z,5000
2016-09-06T09:16:32.968Z,4984
2016-09-06T09:17:33.048Z,4976
2016-09-06T09:18:32.688Z,4976
2016-09-06T09:19:32.773Z,4976
2016-09-06T09:20:33.040Z,4992
2016-09-06T09:21:33.081Z,5068
2016-09-06T09:22:33.162Z,4992
2016-09-06T09:23:33.135Z,4984
2016-09-06T09:24:33.170Z,5056
2016-09-06T09:25:33.189Z,4996
2016-09-06T09:26:33.278Z,4940
2016-09-06T09:27:33.038Z,4944
2016-09-06T09:28:33.259Z,4968
2016-09-06T09:29:32.965Z,4944
2016-09-06T09:30:33.317Z,4916
2016-09-06T09:31:33.014Z,4964
2016-09-06T09:32:33.048Z,4968
2016-09-06T09:33:33.098Z,4996
2016-09-06T09:34:33.413Z,4964
2016-09-06T09:35:33.288Z,4956
2016-09-06T09:36:33.455Z,4960
2016-09-06T09:37:33.197Z,4996
2016-09-06T09:38:33.519Z,5020
2016-09-06T09:39:33.217Z,5012
2016-09-06T09:40:33.594Z,5000
2016-09-06T09:41:33.570Z,4984
2016-09-06T09:42:33.607Z,5016
2016-09-06T09:43:33.647Z,4956
2016-09-06T09:44:33.344Z,4956
2016-09-06T09:45:33.376Z,4932
2016-09-06T09:46:33.750Z,4912
2016-09-06T09:47:33.751Z,4956
2016-09-06T09:48:33.477Z,4976
2016-09-06T09:49:33.792Z,4944
2016-09-06T09:50:33.827Z,4940
2016-09-06T09:51:33.827Z,5012
2016-09-06T09:52:33.890Z,4980
2016-09-06T09:53:33.902Z,4936
2016-09-06T09:54:34.027Z,4916
2016-09-06T09:55:34.026Z,4928
2016-09-06T09:56:33.967Z,4928
2016-09-06T09:57:34.081Z,4928
2016-09-06T09:58:33.705Z,4924
2016-09-06T09:59:34.047Z,4936
2016-09-06T10:00:34.069Z,4984
2016-09-06T10:01:33.780Z,4908
2016-09-06T10:02:33.495Z,4852
2016-09-06T10:03:34.269Z,4836
2016-09-06T10:04:33.886Z,4872
2016-09-06T10:05:33.897Z,4884
2016-09-06T10:06:34.267Z,4928
2016-09-06T10:07:34.294Z,4892
2016-09-06T10:08:34.005Z,4880
2016-09-06T10:09:34.303Z,4836
2016-09-06T10:10:34.017Z,4824
2016-09-06T10:11:34.088Z,4820
2016-09-06T10:12:34.384Z,4832
2016-09-06T10:13:34.127Z,4796
2016-09-06T10:14:33.826Z,4772
2016-09-06T10:15:34.146Z,4796
2016-09-06T10:16:34.504Z,4780
2016-09-06T10:17:34.616Z,4804
2016-09-06T10:18:34.549Z,4736
2016-09-06T10:19:34.565Z,4684
2016-09-06T10:20:34.597Z,4712
2016-09-06T10:21:34.641Z,4736
2016-09-06T10:22:34.635Z,4684
2016-09-06T10:23:34.354Z,4636
2016-09-06T10:24:34.724Z,4676
2016-09-06T10:25:34.437Z,4712
2016-09-06T10:26:34.548Z,4676
2016-09-06T10:27:34.779Z,4408
2016-09-06T10:28:34.895Z,4596
2016-09-06T10:29:34.830Z,4688
2016-09-06T10:30:34.530Z,4680
2016-09-06T10:31:34.312Z,4684
2016-09-06T10:32:34.892Z,4672
2016-09-06T10:33:34.645Z,4632
2016-09-06T10:34:34.635Z,4772
2016-09-06T10:35:35.016Z,4784
2016-09-06T10:36:34.697Z,4756
2016-09-06T10:38:34.749Z,4600
2016-09-06T10:39:34.794Z,4604
2016-09-06T10:40:35.162Z,4596
2016-09-06T10:41:35.197Z,4548
2016-09-06T10:42:35.162Z,4544
2016-09-06T10:43:34.884Z,4616
2016-09-06T10:44:34.917Z,4656
2016-09-06T10:45:34.626Z,4652
2016-09-06T10:46:35.200Z,4636
2016-09-06T10:47:34.977Z,4640
2016-09-06T10:48:34.766Z,4652
2016-09-06T10:49:35.033Z,4616
2016-09-06T10:50:35.377Z,4576
2016-09-06T10:51:34.784Z,4576
2016-09-06T10:52:34.797Z,4552
2016-09-06T10:53:35.152Z,4592
2016-09-06T10:54:35.489Z,4652
2016-09-06T10:55:35.205Z,4684
2016-09-06T10:56:34.929Z,4728
2016-09-06T10:57:35.267Z,4824
2016-09-06T10:58:35.684Z,4940
2016-09-06T10:59:35.302Z,5068
2016-09-06T11:00:35.717Z,5092
2016-09-06T11:01:35.662Z,4968
2016-09-06T11:02:35.740Z,4472
2016-09-06T11:03:34.792Z,4640
2016-09-06T11:04:35.460Z,4956
2016-09-06T11:05:35.139Z,5540
2016-09-06T11:06:35.499Z,6616
2016-09-06T11:07:35.866Z,7128
2016-09-06T11:08:36.157Z,6124
2016-09-06T11:09:35.884Z,5592
2016-09-06T11:10:35.923Z,5508
2016-09-06T11:11:36.008Z,5656
2016-09-06T11:12:35.665Z,5828
2016-09-06T11:13:36.195Z,5996
2016-09-06T11:14:36.174Z,6644
2016-09-06T11:15:36.195Z,7304
2016-09-06T11:16:35.838Z,7820
2016-09-06T11:17:36.238Z,8360
2016-09-06T11:18:35.816Z,8268
2016-09-06T11:19:35.877Z,7720
2016-09-06T11:20:35.886Z,7216
2016-09-06T11:21:36.225Z,7032
2016-09-06T11:22:35.604Z,7220
2016-09-06T11:23:36.268Z,7440
2016-09-06T11:24:36.455Z,7772
2016-09-06T11:25:36.342Z,7960
2016-09-06T11:26:36.444Z,7580
2016-09-06T11:27:36.365Z,7292
2016-09-06T11:28:36.437Z,7016
2016-09-06T11:29:35.816Z,6656
2016-09-06T11:30:36.317Z,6412
2016-09-06T11:31:35.606Z,6348
2016-09-06T11:32:36.306Z,6400
2016-09-06T11:33:35.955Z,6928
2016-09-06T11:34:36.586Z,7096
2016-09-06T11:35:36.324Z,7108
2016-09-06T11:36:36.304Z,7088
2016-09-06T11:37:36.676Z,8884
2016-09-06T11:38:36.092Z,10304
2016-09-06T11:39:36.397Z,10584
2016-09-06T11:40:36.525Z,10132
2016-09-06T11:41:36.839Z,9816
2016-09-06T11:42:36.474Z,9240
2016-09-06T11:43:36.524Z,9136
2016-09-06T11:44:36.536Z,9136
2016-09-06T11:45:36.585Z,8772
2016-09-06T11:46:36.912Z,8428
2016-09-06T11:47:36.918Z,8580
2016-09-06T11:48:36.645Z,8188
2016-09-06T11:49:37.097Z,8412
2016-09-06T11:50:36.805Z,8540
2016-09-06T11:51:36.437Z,8776
2016-09-06T11:52:37.136Z,8356
2016-09-06T11:53:36.803Z,7860
2016-09-06T11:54:37.124Z,7512
2016-09-06T11:55:37.156Z,7336
2016-09-06T11:56:37.165Z,6744
2016-09-06T11:57:37.213Z,6476
2016-09-06T11:58:36.935Z,6408
2016-09-06T11:59:36.967Z,6544
2016-09-06T12:00:37.295Z,6172
2016-09-06T12:01:37.101Z,5948
2016-09-06T12:02:37.030Z,5868
2016-09-06T12:03:37.076Z,6652
2016-09-06T12:04:37.095Z,7664
2016-09-06T12:05:37.424Z,7412
2016-09-06T12:06:37.136Z,7476
2016-09-06T12:07:37.183Z,7964
2016-09-06T12:08:37.538Z,8372
2016-09-06T12:09:37.246Z,9364
2016-09-06T12:10:37.605Z,10204
2016-09-06T12:11:37.607Z,11148
2016-09-06T12:12:36.703Z,12456
2016-09-06T12:13:37.344Z,13612
2016-09-06T12:14:37.065Z,14036
2016-09-06T12:15:37.717Z,13540
2016-09-06T12:16:37.118Z,12880
2016-09-06T12:17:37.795Z,12536
2016-09-06T12:18:37.491Z,11568
2016-09-06T12:19:37.517Z,10536
2016-09-06T12:20:37.546Z,10324
2016-09-06T12:21:37.625Z,10272
2016-09-06T12:22:37.976Z,10756
2016-09-06T12:23:37.983Z,11268
2016-09-06T12:24:37.677Z,11612
2016-09-06T12:25:37.996Z,11748
2016-09-06T12:26:37.727Z,11828
2016-09-06T12:27:37.744Z,12176
2016-09-06T12:28:37.790Z,12544
2016-09-06T12:29:38.135Z,13540
2016-09-06T12:30:38.141Z,13968
2016-09-06T12:31:38.319Z,13644
2016-09-06T12:32:37.915Z,12712
2016-09-06T12:33:38.238Z,11576
2016-09-06T12:34:37.938Z,10684
2016-09-06T12:35:37.996Z,10208
2016-09-06T12:36:37.715Z,10872
2016-09-06T12:37:38.353Z,11144
2016-09-06T12:38:37.763Z,10608
2016-09-06T12:39:38.184Z,10084
2016-09-06T12:40:38.485Z,9432
2016-09-06T12:41:38.145Z,10000
2016-09-06T12:42:38.235Z,11344
2016-09-06T12:43:38.555Z,11872
2016-09-06T12:44:38.695Z,12320
2016-09-06T12:45:38.267Z,12972
2016-09-06T12:46:38.292Z,12864
2016-09-06T12:47:38.642Z,12564
2016-09-06T12:48:38.668Z,12004
2016-09-06T12:49:38.695Z,11800
2016-09-06T12:50:38.729Z,12112
2016-09-06T12:51:38.743Z,12780
2016-09-06T12:52:38.464Z,13000
2016-09-06T12:53:38.809Z,13012
2016-09-06T12:54:38.876Z,13124
2016-09-06T12:55:38.562Z,12984
2016-09-06T12:56:38.881Z,12336
2016-09-06T12:57:38.952Z,11952
2016-09-06T12:58:38.985Z,11788
2016-09-06T12:59:39.175Z,11580
2016-09-06T13:00:39.003Z,11216
2016-09-06T13:01:38.996Z,10984
2016-09-06T13:02:39.227Z,10776
2016-09-06T13:03:38.928Z,10384
2016-09-06T13:04:39.309Z,10044
2016-09-06T13:05:39.148Z,9832
2016-09-06T13:06:39.328Z,8964
2016-09-06T13:07:39.300Z,8396
2016-09-06T13:08:38.944Z,7960
2016-09-06T13:09:38.967Z,7856
2016-09-06T13:10:39.296Z,7624
2016-09-06T13:11:39.328Z,7248
2016-09-06T13:12:39.236Z,7096
2016-09-06T13:13:39.427Z,6948
2016-09-06T13:14:39.385Z,6772
2016-09-06T13:15:39.462Z,6672
2016-09-06T13:16:39.349Z,6488
2016-09-06T13:17:39.207Z,6244
2016-09-06T13:18:39.224Z,6208
2016-09-06T13:19:39.356Z,6324
2016-09-06T13:20:39.328Z,6480
2016-09-06T13:21:39.618Z,6692
2016-09-06T13:22:39.678Z,7576
2016-09-06T13:23:39.592Z,8352
2016-09-06T13:24:39.387Z,8976
2016-09-06T13:25:39.756Z,9428
2016-09-06T13:26:39.460Z,9484
2016-09-06T13:27:39.464Z,8840
2016-09-06T13:28:39.841Z,8108
2016-09-06T13:29:39.530Z,7396
2016-09-06T13:30:39.596Z,6996
2016-09-06T13:31:39.964Z,6780
2016-09-06T13:32:39.729Z,6564
2016-09-06T13:33:39.405Z,6504
2016-09-06T13:34:39.697Z,6464
2016-09-06T13:35:40.024Z,6444
2016-09-06T13:36:40.107Z,6056
2016-09-06T13:37:40.095Z,6104
2016-09-06T13:38:40.116Z,6436
2016-09-06T13:39:40.155Z,6380
2016-09-06T13:40:39.864Z,6164
2016-09-06T13:41:40.204Z,5896
2016-09-06T13:42:39.982Z,5672
2016-09-06T13:43:40.317Z,5556